createdAt,value
2022-11-10T00:01:02.922Z,10.30
2022-11-10T00:03:29.503Z,10.30
2022-11-10T00:05:56.351Z,10.20
2022-11-10T00:08:22.957Z,10.20
2022-11-10T00:10:58.943Z,10.20
2022-11-10T00:13:30.889Z,10.20
2022-11-10T00:16:21.304Z,10.30
2022-11-10T00:18:47.887Z,10.30
2022-11-10T00:21:16.255Z,10.20
2022-11-10T00:23:43.535Z,10.30
2022-11-10T00:26:18.781Z,10.30
2022-11-10T00:28:45.835Z,10.30
2022-11-10T00:31:13.529Z,10.20
2022-11-10T00:33:42.703Z,10.30
2022-11-10T00:36:09.674Z,10.30
2022-11-10T00:38:36.285Z,10.30
2022-11-10T00:41:03.633Z,10.30
2022-11-10T00:43:30.907Z,10.30
2022-11-10T00:45:58.190Z,10.30
2022-11-10T00:48:25.463Z,10.20
2022-11-10T00:50:52.372Z,10.20
2022-11-10T00:53:19.262Z,10.30
2022-11-10T00:55:46.440Z,10.20
2022-11-10T00:58:13.179Z,10.20
2022-11-10T01:00:40.175Z,10.20
2022-11-10T01:03:07.742Z,10.20
2022-11-10T01:05:38.235Z,10.20
2022-11-10T01:08:05.156Z,10.20
2022-11-10T01:10:31.928Z,10.20
2022-11-10T01:12:59.156Z,10.20
2022-11-10T01:15:27.890Z,10.20
2022-11-10T01:17:56.180Z,10.20
2022-11-10T01:20:24.058Z,10.20
2022-11-10T01:22:50.675Z,10.20
2022-11-10T01:25:17.345Z,10.20
2022-11-10T01:27:43.923Z,10.20
2022-11-10T01:30:11.034Z,10.30
2022-11-10T01:32:37.635Z,10.20
2022-11-10T01:35:04.668Z,10.20
2022-11-10T01:37:31.322Z,10.20
2022-11-10T01:39:58.107Z,10.20
2022-11-10T01:42:38.267Z,10.20
2022-11-10T01:46:05.938Z,10.20
2022-11-10T01:48:56.506Z,10.10
2022-11-10T01:51:58.045Z,10.10
2022-11-10T01:54:32.167Z,10.20
2022-11-10T01:57:05.066Z,10.20
2022-11-10T01:59:36.607Z,10.20
2022-11-10T02:02:41.503Z,10.20
2022-11-10T02:05:08.740Z,10.20
2022-11-10T02:07:35.823Z,10.20
2022-11-10T02:10:03.589Z,10.10
2022-11-10T02:12:38.117Z,10.20
2022-11-10T02:15:06.395Z,10.20
2022-11-10T02:17:33.017Z,10.10
2022-11-10T02:20:04.868Z,10.10
2022-11-10T02:22:32.677Z,10.20
2022-11-10T02:24:59.675Z,10.20
2022-11-10T02:27:26.314Z,10.10
2022-11-10T02:29:53.121Z,10.10
2022-11-10T02:32:19.921Z,10.10
2022-11-10T02:34:46.770Z,10.10
2022-11-10T02:37:13.334Z,10.10
2022-11-10T02:39:39.909Z,10.10
2022-11-10T02:42:10.344Z,10.10
2022-11-10T02:44:40.497Z,10.10
2022-11-10T02:47:07.848Z,10.10
2022-11-10T02:49:34.591Z,10.10
2022-11-10T02:52:01.180Z,10.00
2022-11-10T02:54:27.771Z,10.00
2022-11-10T02:56:54.371Z,10.00
2022-11-10T02:59:20.976Z,9.80
2022-11-10T03:01:47.570Z,9.60
2022-11-10T03:04:14.279Z,9.50
2022-11-10T03:06:40.964Z,9.50
2022-11-10T03:09:07.695Z,9.50
2022-11-10T03:11:34.322Z,9.50
2022-11-10T03:14:02.577Z,9.50
2022-11-10T03:16:30.230Z,9.40
2022-11-10T03:18:56.836Z,9.40
2022-11-10T03:21:23.481Z,9.30
2022-11-10T03:23:50.213Z,9.30
2022-11-10T03:26:16.809Z,9.30
2022-11-10T03:28:43.400Z,9.30
2022-11-10T03:31:10.016Z,9.30
2022-11-10T03:33:36.724Z,9.30
2022-11-10T03:36:03.496Z,9.30
2022-11-10T03:38:30.082Z,9.30
2022-11-10T03:41:18.104Z,9.30
2022-11-10T03:43:43.264Z,9.30
2022-11-10T03:46:09.904Z,9.30
2022-11-10T03:48:36.540Z,9.20
2022-11-10T03:51:03.195Z,9.30
2022-11-10T03:53:29.894Z,9.30
2022-11-10T03:55:59.602Z,9.40
2022-11-10T03:58:26.208Z,9.30
2022-11-10T04:00:56.088Z,9.30
2022-11-10T04:03:23.658Z,9.30
2022-11-10T04:06:09.338Z,9.30
2022-11-10T04:08:54.685Z,9.30
2022-11-10T04:11:40.881Z,9.20
2022-11-10T04:14:26.332Z,9.20
2022-11-10T04:16:53.019Z,9.20
2022-11-10T04:19:19.901Z,9.20
2022-11-10T04:21:46.820Z,9.20
2022-11-10T04:24:13.415Z,9.20
2022-11-10T04:26:42.640Z,9.30
2022-11-10T04:29:11.351Z,9.30
2022-11-10T04:31:39.929Z,9.30
2022-11-10T04:34:14.884Z,9.30
2022-11-10T04:36:44.153Z,9.30
2022-11-10T04:39:11.186Z,9.40
2022-11-10T04:41:38.105Z,9.30
2022-11-10T04:44:05.575Z,9.30
2022-11-10T04:46:36.605Z,9.20
2022-11-10T04:49:05.048Z,9.20
2022-11-10T04:51:36.898Z,9.20
2022-11-10T04:54:05.102Z,9.20
2022-11-10T04:56:31.828Z,9.20
2022-11-10T04:58:58.424Z,9.20
2022-11-10T05:01:27.380Z,9.30
2022-11-10T05:03:54.946Z,9.30
2022-11-10T05:06:22.337Z,9.20
2022-11-10T05:08:49.367Z,9.20
2022-11-10T05:11:16.242Z,9.20
2022-11-10T05:13:43.511Z,9.20
2022-11-10T05:16:11.175Z,9.20
2022-11-10T05:18:38.202Z,9.20
2022-11-10T05:21:04.898Z,9.20
2022-11-10T05:23:41.787Z,9.20
2022-11-10T05:26:16.723Z,9.20
2022-11-10T05:28:45.043Z,9.20
2022-11-10T05:31:12.612Z,9.30
2022-11-10T05:33:39.384Z,9.20
2022-11-10T05:36:07.178Z,9.30
2022-11-10T05:38:35.654Z,9.20
2022-11-10T05:41:05.740Z,9.10
2022-11-10T05:43:32.309Z,9.10
2022-11-10T05:45:59.002Z,9.10
2022-11-10T05:48:25.610Z,9.20
2022-11-10T05:50:52.220Z,9.10
2022-11-10T05:53:19.006Z,9.20
2022-11-10T05:55:45.880Z,9.20
2022-11-10T05:58:12.722Z,9.20
2022-11-10T06:00:39.361Z,9.10
2022-11-10T06:03:17.351Z,9.10
2022-11-10T06:05:44.678Z,9.10
2022-11-10T06:08:11.561Z,9.10
2022-11-10T06:10:39.310Z,9.10
2022-11-10T06:13:06.040Z,9.20
2022-11-10T06:15:33.144Z,9.20
2022-11-10T06:17:59.857Z,9.20
2022-11-10T06:20:26.602Z,9.20
2022-11-10T06:23:07.541Z,9.20
2022-11-10T06:25:35.963Z,9.20
2022-11-10T06:28:03.711Z,9.20
2022-11-10T06:30:32.966Z,9.20
2022-11-10T06:32:59.633Z,9.30
2022-11-10T06:35:26.908Z,9.30
2022-11-10T06:38:01.799Z,9.30
2022-11-10T06:40:29.411Z,9.20
2022-11-10T06:42:57.347Z,9.30
2022-11-10T06:45:24.927Z,9.30
2022-11-10T06:48:11.091Z,9.40
2022-11-10T06:50:37.827Z,9.40
2022-11-10T06:53:05.084Z,9.40
2022-11-10T06:55:31.705Z,9.40
2022-11-10T06:57:58.896Z,9.30
2022-11-10T07:00:26.978Z,9.40
2022-11-10T07:03:07.213Z,9.40
2022-11-10T07:05:35.565Z,9.40
2022-11-10T07:08:15.850Z,9.30
2022-11-10T07:10:43.282Z,9.30
2022-11-10T07:13:10.544Z,9.30
2022-11-10T07:15:37.684Z,9.20
2022-11-10T07:18:05.121Z,9.20
2022-11-10T07:20:32.119Z,9.10
2022-11-10T07:23:00.487Z,9.10
2022-11-10T07:25:28.904Z,9.10
2022-11-10T07:28:00.057Z,9.20
2022-11-10T07:30:28.182Z,9.20
2022-11-10T07:33:10.151Z,9.30
2022-11-10T07:35:37.040Z,9.30
2022-11-10T07:38:09.671Z,9.40
2022-11-10T07:40:42.355Z,9.50
2022-11-10T07:43:08.940Z,9.60
2022-11-10T07:45:35.586Z,9.70
2022-11-10T07:48:03.684Z,9.70
2022-11-10T07:50:30.419Z,9.70
2022-11-10T07:53:08.669Z,9.70
2022-11-10T07:55:38.043Z,9.80
2022-11-10T07:58:05.117Z,9.80
2022-11-10T08:00:32.461Z,9.90
2022-11-10T08:03:15.958Z,10.00
2022-11-10T08:05:42.882Z,10.00
2022-11-10T08:08:10.359Z,10.00
2022-11-10T08:10:38.876Z,10.10
2022-11-10T08:13:07.251Z,10.10
2022-11-10T08:15:34.856Z,10.10
2022-11-10T08:18:23.819Z,10.10
2022-11-10T08:20:50.427Z,10.00
2022-11-10T08:23:17.869Z,10.00
2022-11-10T08:25:44.782Z,10.10
2022-11-10T08:28:17.548Z,10.20
2022-11-10T08:30:46.341Z,10.20
2022-11-10T08:33:15.107Z,10.30
2022-11-10T08:35:44.406Z,10.40
2022-11-10T08:38:19.400Z,10.40
2022-11-10T08:40:46.746Z,10.40
2022-11-10T08:43:15.259Z,10.60
2022-11-10T08:45:43.157Z,10.60
2022-11-10T08:48:16.370Z,10.60
2022-11-10T14:55:55.024Z,10.60
2022-11-10T14:58:32.682Z,14.50
2022-11-10T15:01:01.147Z,14.10
2022-11-10T15:03:39.737Z,13.90
2022-11-10T15:06:11.877Z,13.80
2022-11-10T15:08:40.261Z,13.80
2022-11-10T15:11:07.077Z,13.70
2022-11-10T15:13:39.649Z,13.50
2022-11-10T15:16:27.785Z,13.40
2022-11-10T15:18:57.334Z,13.30
2022-11-10T15:21:33.947Z,13.20
2022-11-10T15:24:05.157Z,13.10
2022-11-10T15:26:37.941Z,13.20
2022-11-10T15:29:04.617Z,13.00
2022-11-10T15:31:33.351Z,12.90
2022-11-10T15:34:02.584Z,12.90
2022-11-10T15:36:34.405Z,12.80
2022-11-10T15:39:23.190Z,12.70
2022-11-10T15:41:56.577Z,12.50
2022-11-10T15:44:28.059Z,12.40
2022-11-10T15:46:56.764Z,12.30
2022-11-10T15:49:34.358Z,12.10
2022-11-10T15:52:04.017Z,11.90
2022-11-10T15:54:33.729Z,11.80
2022-11-10T15:57:00.315Z,11.70
2022-11-10T15:59:27.025Z,11.60
2022-11-10T16:01:53.729Z,11.50
2022-11-10T16:04:20.371Z,11.40
2022-11-10T16:06:47.474Z,11.30
2022-11-10T16:09:14.139Z,11.20
2022-11-10T16:11:44.600Z,11.20
2022-11-10T16:14:14.997Z,11.00
2022-11-10T16:16:42.013Z,10.90
2022-11-10T16:19:12.109Z,10.80
2022-11-10T16:21:38.945Z,10.70
2022-11-10T16:24:05.912Z,10.70
2022-11-10T16:26:34.087Z,10.60
2022-11-10T16:29:00.922Z,10.50
2022-11-10T16:31:27.711Z,10.40
2022-11-10T16:33:54.381Z,10.50
2022-11-10T16:36:31.328Z,10.50
2022-11-10T16:39:01.584Z,10.50
2022-11-10T16:41:28.207Z,10.50
2022-11-10T16:43:54.782Z,10.50
2022-11-10T16:46:29.544Z,10.40
2022-11-10T16:48:58.840Z,10.30
2022-11-10T16:51:42.945Z,10.30
2022-11-10T16:54:13.783Z,10.30
2022-11-10T16:56:40.397Z,10.20
2022-11-10T16:59:07.149Z,10.20
2022-11-10T17:01:36.129Z,10.20
2022-11-10T17:04:07.894Z,10.10
2022-11-10T17:06:34.526Z,10.10
2022-11-10T17:09:25.471Z,10.00
2022-11-10T17:11:52.028Z,9.90
2022-11-10T17:14:18.737Z,9.80
2022-11-10T17:16:46.499Z,9.80
2022-11-10T17:19:23.896Z,9.90
2022-11-10T17:21:51.450Z,9.90
2022-11-10T17:24:18.810Z,10.00
2022-11-10T17:26:45.757Z,9.90
2022-11-10T17:29:22.157Z,9.90
2022-11-10T17:31:50.230Z,9.80
2022-11-10T17:34:16.818Z,9.70
2022-11-10T17:36:43.532Z,9.70
2022-11-10T17:39:15.272Z,9.50
2022-11-10T17:41:42.295Z,9.50
2022-11-10T17:44:16.431Z,9.40
2022-11-10T17:46:43.393Z,9.30
2022-11-10T17:49:10.008Z,9.20
2022-11-10T17:51:37.132Z,9.10
2022-11-10T17:54:04.363Z,9.00
2022-11-10T17:56:31.728Z,8.90
2022-11-10T17:58:58.454Z,8.80
2022-11-10T18:01:25.113Z,8.70
2022-11-10T18:03:51.730Z,8.70
2022-11-10T18:06:20.303Z,8.60
2022-11-10T18:08:47.049Z,8.60
2022-11-10T18:11:16.238Z,8.60
2022-11-10T18:13:43.520Z,8.50
2022-11-10T18:16:12.068Z,8.50
2022-11-10T18:18:38.785Z,8.50
2022-11-10T18:21:06.222Z,8.50
2022-11-10T18:23:33.405Z,8.40
2022-11-10T18:26:05.164Z,8.30
2022-11-10T18:28:32.590Z,8.20
2022-11-10T18:31:04.925Z,8.20
2022-11-10T18:33:31.536Z,8.10
2022-11-10T18:36:01.868Z,8.10
2022-11-10T18:38:28.820Z,8.10
2022-11-10T18:40:55.696Z,8.10
2022-11-10T18:43:22.542Z,8.10
2022-11-10T18:45:53.436Z,8.10
2022-11-10T18:48:24.274Z,8.00
2022-11-10T18:50:53.801Z,8.10
2022-11-10T18:53:20.619Z,8.00
2022-11-10T18:55:57.341Z,8.10
2022-11-10T18:58:23.890Z,8.10
2022-11-10T19:00:50.468Z,8.10
2022-11-10T19:03:17.054Z,8.20
2022-11-10T19:05:43.675Z,8.20
2022-11-10T19:08:10.739Z,8.20
2022-11-10T19:10:42.337Z,8.10
2022-11-10T19:13:08.934Z,8.10
2022-11-10T19:15:40.894Z,8.00
2022-11-10T19:18:07.464Z,8.00
2022-11-10T19:20:38.210Z,8.00
2022-11-10T19:23:05.991Z,7.90
2022-11-10T19:25:32.716Z,7.90
2022-11-10T19:27:59.688Z,7.80
2022-11-10T19:30:26.416Z,7.80
2022-11-10T19:32:53.008Z,7.90
2022-11-10T19:35:19.587Z,8.00
2022-11-10T19:37:48.079Z,8.10
2022-11-10T19:40:14.779Z,8.20
2022-11-10T19:42:41.373Z,8.20
2022-11-10T19:45:08.689Z,8.20
2022-11-10T19:47:35.245Z,8.10
2022-11-10T19:50:01.900Z,8.10
2022-11-10T19:52:29.287Z,7.90
2022-11-10T19:54:55.835Z,7.80
2022-11-10T19:57:23.149Z,7.80
2022-11-10T19:59:49.709Z,7.90
2022-11-10T20:02:16.314Z,7.90
2022-11-10T20:05:03.152Z,7.80
2022-11-10T20:07:48.583Z,7.70
2022-11-10T20:10:15.253Z,7.70
2022-11-10T20:12:41.831Z,7.60
2022-11-10T20:15:08.993Z,7.50
2022-11-10T20:17:35.573Z,7.50
2022-11-10T20:20:02.138Z,7.40
2022-11-10T20:22:28.748Z,7.40
2022-11-10T20:24:55.307Z,7.30
2022-11-10T20:27:21.948Z,7.30
2022-11-10T20:29:48.530Z,7.30
2022-11-10T20:32:15.117Z,7.20
2022-11-10T20:34:41.707Z,7.10
2022-11-10T20:37:08.332Z,7.10
2022-11-10T20:39:35.043Z,7.10
2022-11-10T20:42:01.578Z,7.10
2022-11-10T20:44:28.170Z,7.10
2022-11-10T20:46:55.684Z,7.10
2022-11-10T20:49:22.410Z,7.10
2022-11-10T20:51:49.189Z,7.10
2022-11-10T20:54:17.263Z,7.00
2022-11-10T20:56:43.980Z,7.10
2022-11-10T20:59:11.294Z,7.00
2022-11-10T21:01:37.953Z,7.00
2022-11-10T21:04:06.064Z,6.90
2022-11-10T21:06:32.784Z,6.80
2022-11-10T21:08:59.548Z,6.70
2022-11-10T21:11:44.613Z,6.70
2022-11-10T21:14:11.248Z,6.60
2022-11-10T21:16:37.855Z,6.60
2022-11-10T21:19:04.442Z,6.50
2022-11-10T21:21:36.771Z,6.40
2022-11-10T21:24:04.883Z,6.30
2022-11-10T21:26:34.001Z,6.30
2022-11-10T21:29:01.470Z,6.20
2022-11-10T21:31:28.895Z,6.20
2022-11-10T21:33:56.515Z,6.20
2022-11-10T21:36:23.180Z,6.10
2022-11-10T21:38:49.844Z,6.10
2022-11-10T21:41:16.474Z,6.20
2022-11-10T21:43:43.039Z,6.10
2022-11-10T21:46:09.710Z,6.20
2022-11-10T21:48:36.385Z,6.20
2022-11-10T21:51:05.607Z,6.30
2022-11-10T21:53:33.243Z,6.30
2022-11-10T21:56:01.381Z,6.30
2022-11-10T21:58:28.233Z,6.30
2022-11-10T22:01:15.627Z,6.30
2022-11-10T22:03:42.467Z,6.30
2022-11-10T22:06:11.471Z,6.30
2022-11-10T22:08:39.629Z,6.40
2022-11-10T22:11:29.878Z,6.40
2022-11-10T22:14:15.188Z,6.40
2022-11-10T22:17:08.406Z,6.40
2022-11-10T22:19:36.605Z,6.40
2022-11-10T22:22:04.242Z,6.40
2022-11-10T22:24:31.434Z,6.40
2022-11-10T22:27:00.127Z,6.40
2022-11-10T22:29:31.770Z,6.30
2022-11-10T22:31:59.841Z,6.40
2022-11-10T22:34:26.585Z,6.40
2022-11-10T22:36:54.556Z,6.30
2022-11-10T22:39:21.262Z,6.30
2022-11-10T22:42:06.665Z,6.30
2022-11-10T22:44:33.598Z,6.30
2022-11-10T22:47:00.188Z,6.30
2022-11-10T22:49:26.842Z,6.30
2022-11-10T22:51:56.617Z,6.30
2022-11-10T22:54:24.810Z,6.20
2022-11-10T22:56:52.030Z,6.20
2022-11-10T22:59:19.711Z,6.10
2022-11-10T23:01:46.710Z,6.10
2022-11-10T23:04:15.710Z,6.00
2022-11-10T23:06:42.769Z,6.10
2022-11-10T23:09:10.218Z,6.00
2022-11-10T23:11:36.936Z,6.00
2022-11-10T23:14:03.689Z,5.90
2022-11-10T23:16:33.503Z,5.90
2022-11-10T23:19:00.587Z,5.90
2022-11-10T23:21:29.225Z,5.90
2022-11-10T23:23:56.542Z,5.80
2022-11-10T23:26:29.991Z,5.90
2022-11-10T23:28:56.793Z,5.90
2022-11-10T23:31:28.177Z,5.90
2022-11-10T23:33:56.130Z,5.90
2022-11-10T23:36:25.021Z,5.90
2022-11-10T23:38:51.919Z,5.90
2022-11-10T23:41:20.656Z,5.90
2022-11-10T23:43:47.618Z,5.90
2022-11-10T23:46:14.577Z,5.90
2022-11-10T23:48:41.823Z,5.90
2022-11-10T23:51:11.166Z,5.90
2022-11-10T23:53:38.109Z,5.90
2022-11-10T23:56:07.431Z,5.90
2022-11-10T23:58:34.009Z,5.90
